Time;durP1;ratioP1;P1;durP2;ratioP2;P2;SDS_P1;SDS_P2;PMS_P1;PMS_P2;Temp;Humidity;BMP_temperature;BMP_pressure;BME280_temperature;BME280_humidity;BME280_pressure;Samples;Min_cycle;Max_cycle;Signal;HPM_P1;HPM_P2
2024/02/05 00:00:19;;;;;;;0.30;0.20;;;;;;;11.32;95.75;100955.19;5070956;28;20474;-47
2024/02/05 00:02:46;;;;;;;0.30;0.20;;;;;;;11.27;95.65;100944.63;5070793;28;20577;-47
2024/02/05 00:05:12;;;;;;;0.30;0.20;;;;;;;11.33;96.06;100943.63;5070794;28;20442;-49
2024/02/05 00:07:39;;;;;;;0.30;0.20;;;;;;;11.31;95.91;100949.88;5070895;28;20464;-48
2024/02/05 00:10:07;;;;;;;2.67;2.67;;;;;;;11.22;96.44;100949.16;5070933;28;20491;-48
2024/02/05 00:12:34;;;;;;;0.30;0.20;;;;;;;11.19;97.15;100945.69;5072418;28;20515;-47
2024/02/05 00:15:01;;;;;;;0.30;0.20;;;;;;;11.25;97.11;100934.94;5074265;28;20489;-49
2024/02/05 00:17:27;;;;;;;0.30;0.20;;;;;;;11.18;97.59;100946.59;5074351;28;20420;-48
2024/02/05 00:19:54;;;;;;;0.30;0.20;;;;;;;11.20;97.57;100948.31;5074151;28;20456;-48
2024/02/05 00:22:20;;;;;;;0.30;0.20;;;;;;;11.17;98.16;100951.06;5074060;28;20469;-48
2024/02/05 00:24:47;;;;;;;0.30;0.20;;;;;;;11.13;98.12;100944.03;5071411;28;20416;-48
2024/02/05 00:27:14;;;;;;;0.30;0.20;;;;;;;11.06;98.92;100949.50;5074270;28;20507;-47
2024/02/05 00:29:41;;;;;;;0.30;0.20;;;;;;;11.14;98.64;100950.25;5074434;28;20448;-48
2024/02/05 00:32:07;;;;;;;0.30;0.20;;;;;;;11.09;99.41;100933.47;5073886;28;20500;-48
2024/02/05 00:34:34;;;;;;;0.30;0.20;;;;;;;11.18;99.06;100936.84;5073624;28;20492;-48
2024/02/05 00:37:00;;;;;;;0.30;0.20;;;;;;;11.04;98.99;100944.22;5072068;28;20531;-49
2024/02/05 00:39:27;;;;;;;0.30;0.20;;;;;;;11.14;99.44;100950.25;5072948;28;20457;-48
2024/02/05 00:41:54;;;;;;;0.30;0.20;;;;;;;11.16;98.88;100946.63;5073952;28;20888;-48
2024/02/05 00:44:20;;;;;;;0.30;0.20;;;;;;;11.08;99.29;100953.00;5062278;28;20494;-48
2024/02/05 00:46:48;;;;;;;0.30;0.20;;;;;;;11.04;100.00;100944.22;5073757;28;20588;-48
2024/02/05 00:49:15;;;;;;;0.30;0.20;;;;;;;11.07;100.00;100945.94;5073481;28;20450;-48
2024/02/05 00:51:42;;;;;;;0.30;0.20;;;;;;;11.09;100.00;100950.31;5073658;28;20428;-48
2024/02/05 00:54:08;;;;;;;0.30;0.20;;;;;;;11.04;99.91;100940.69;5071827;28;20486;-47
2024/02/05 00:56:35;;;;;;;0.30;0.20;;;;;;;11.02;99.84;100935.41;5066832;28;20479;-48
2024/02/05 00:59:01;;;;;;;0.30;0.20;;;;;;;11.16;99.22;100940.44;5073686;28;20477;-48
2024/02/05 01:01:28;;;;;;;0.30;0.20;;;;;;;11.14;99.19;100936.94;5073387;28;20477;-48
2024/02/05 01:03:54;;;;;;;0.30;0.20;;;;;;;11.18;98.63;100943.94;5073258;28;20491;-47
2024/02/05 01:06:21;;;;;;;0.30;0.20;;;;;;;11.09;98.71;100942.34;5073642;28;20809;-49
2024/02/05 01:08:48;;;;;;;0.30;0.20;;;;;;;11.18;98.07;100946.59;5047265;28;21275;-48
2024/02/05 01:11:15;;;;;;;0.30;0.20;;;;;;;11.24;97.61;100939.38;5073420;28;20425;-49
2024/02/05 01:13:42;;;;;;;0.30;0.20;;;;;;;11.27;97.58;100933.13;5073329;28;20466;-48
2024/02/05 01:16:09;;;;;;;0.30;0.20;;;;;;;11.32;97.46;100939.22;5073109;28;20479;-48
2024/02/05 01:18:36;;;;;;;0.30;0.20;;;;;;;11.27;97.89;100943.75;5073165;28;20478;-49
2024/02/05 01:21:04;;;;;;;0.30;0.20;;;;;;;11.22;98.10;100935.84;5073207;28;20482;-48
2024/02/05 01:23:31;;;;;;;0.30;0.20;;;;;;;11.17;98.73;100929.75;5073035;28;20535;-47
2024/02/05 01:25:57;;;;;;;0.30;0.20;;;;;;;11.16;98.56;100935.13;5070195;28;20456;-47
2024/02/05 01:28:24;;;;;;;0.30;0.20;;;;;;;11.22;98.40;100930.53;5055222;28;20453;-48
2024/02/05 01:30:50;;;;;;;0.30;0.20;;;;;;;11.19;97.86;100937.72;5072724;28;20424;-47
2024/02/05 01:33:17;;;;;;;0.30;0.20;;;;;;;11.23;98.00;100934.94;5073046;28;20829;-48
2024/02/05 01:35:44;;;;;;;0.30;0.20;;;;;;;11.19;97.77;100943.91;5072781;28;20503;-48
2024/02/05 01:38:10;;;;;;;0.30;0.20;;;;;;;11.11;98.21;100943.22;5069762;28;20874;-48
2024/02/05 01:40:38;;;;;;;0.30;0.20;;;;;;;11.15;98.05;100944.00;5072715;28;20461;-48
2024/02/05 01:43:04;;;;;;;0.30;0.20;;;;;;;11.10;98.34;100935.22;5066028;28;20466;-48
2024/02/05 01:45:31;;;;;;;0.30;0.20;;;;;;;11.22;97.87;100949.16;5067789;28;20450;-48
2024/02/05 01:47:58;;;;;;;0.30;0.20;;;;;;;11.26;98.02;100937.56;5072744;28;20446;-49
2024/02/05 01:50:25;;;;;;;0.30;0.20;;;;;;;11.20;98.52;100943.00;5072464;28;20563;-47
2024/02/05 01:52:51;;;;;;;0.30;0.20;;;;;;;11.13;99.00;100946.72;5072436;28;20569;-49
2024/02/05 01:55:22;;;;;;;0.30;0.20;;;;;;;11.14;98.27;100939.59;5062887;28;20468;-49
2024/02/05 01:57:50;;;;;;;0.30;0.20;;;;;;;11.11;98.46;100942.34;5072344;28;20460;-48
2024/02/05 02:00:17;;;;;;;0.30;0.20;;;;;;;11.16;98.25;100943.09;5072736;28;20481;-48
2024/02/05 02:02:44;;;;;;;0.30;0.20;;;;;;;11.10;97.97;100941.47;5072040;28;20982;-48
2024/02/05 02:05:11;;;;;;;0.30;0.20;;;;;;;11.09;98.08;100938.81;5072429;28;20730;-48
2024/02/05 02:07:39;;;;;;;0.30;0.20;;;;;;;11.14;97.27;100945.78;5072338;28;20456;-48
2024/02/05 02:10:06;;;;;;;0.30;0.20;;;;;;;11.17;97.01;100943.06;5072226;28;20917;-48
2024/02/05 02:12:33;;;;;;;0.30;0.20;;;;;;;11.21;97.17;100950.06;5072011;28;20536;-48
2024/02/05 02:15:00;;;;;;;0.30;0.20;;;;;;;11.18;96.80;100951.94;5072093;28;20576;-48
2024/02/05 02:17:30;;;;;;;0.30;0.20;;;;;;;11.18;96.74;100941.28;5054293;28;20537;-49
2024/02/05 02:19:57;;;;;;;0.30;0.20;;;;;;;11.24;96.40;100941.19;5071893;28;20939;-49
2024/02/05 02:22:50;;;;;;;0.30;0.20;;;;;;;11.23;96.75;100944.72;5071794;28;20994;-48
2024/02/05 02:25:17;;;;;;;0.30;0.20;;;;;;;11.18;96.72;100949.25;5052422;28;20535;-48
2024/02/05 02:27:45;;;;;;;0.30;0.20;;;;;;;11.12;96.56;100944.97;5072017;28;20870;-49
2024/02/05 02:30:14;;;;;;;0.30;0.20;;;;;;;11.19;96.46;100935.94;5072130;28;20458;-49
2024/02/05 02:32:56;;;;;;;0.30;0.20;;;;;;;11.25;96.18;100935.81;5071548;28;20470;-48
2024/02/05 02:35:32;;;;;;;0.30;0.20;;;;;;;11.22;96.25;100927.88;5071174;28;20486;-49
2024/02/05 02:38:05;;;;;;;0.30;0.20;;;;;;;11.14;96.54;100935.16;5068379;28;20882;-48
2024/02/05 02:40:33;;;;;;;0.30;0.20;;;;;;;11.24;96.70;100933.19;5071892;28;20802;-49
2024/02/05 02:43:03;;;;;;;0.30;0.20;;;;;;;11.21;95.98;100925.25;5066006;28;20442;-48
2024/02/05 02:45:31;;;;;;;0.30;0.20;;;;;;;11.24;95.99;100926.09;5049172;28;20438;-48
2024/02/05 02:47:58;;;;;;;0.30;0.20;;;;;;;11.30;95.86;100932.16;5071424;28;20809;-48
2024/02/05 02:50:24;;;;;;;0.30;0.20;;;;;;;11.27;95.54;100930.47;5071521;28;20977;-48
2024/02/05 02:52:51;;;;;;;0.30;0.20;;;;;;;11.10;96.26;100929.91;5072043;28;20485;-48
2024/02/05 02:55:18;;;;;;;0.30;0.20;;;;;;;11.15;96.37;100933.38;5062743;28;20464;-48
2024/02/05 02:57:45;;;;;;;0.30;0.20;;;;;;;11.12;96.29;100933.44;5071578;28;20424;-48
2024/02/05 03:00:12;;;;;;;0.30;0.20;;;;;;;11.16;96.32;100928.00;5071359;28;20457;-48
2024/02/05 03:02:39;;;;;;;0.30;0.20;;;;;;;11.13;96.09;100933.41;5071125;28;20832;-49
2024/02/05 03:05:06;;;;;;;0.30;0.20;;;;;;;11.10;95.80;100929.91;5071191;28;20878;-48
2024/02/05 03:07:34;;;;;;;0.30;0.20;;;;;;;11.13;96.18;100932.53;5071629;28;20495;-48
2024/02/05 03:10:05;;;;;;;0.30;0.20;;;;;;;11.16;96.07;100936.00;5071343;28;20493;-48
2024/02/05 03:12:32;;;;;;;0.30;0.20;;;;;;;11.15;96.37;100925.38;5071512;28;20548;-48
2024/02/05 03:15:02;;;;;;;0.30;0.20;;;;;;;11.20;96.07;100932.34;5071182;28;20494;-48
2024/02/05 03:17:28;;;;;;;0.30;0.20;;;;;;;11.15;96.39;100934.25;5053602;28;20450;-48
2024/02/05 03:19:55;;;;;;;0.30;0.20;;;;;;;11.16;96.45;100941.31;5071362;28;20822;-48
2024/02/05 03:22:21;;;;;;;0.30;0.20;;;;;;;11.11;96.22;100939.66;5071268;28;20506;-48
2024/02/05 03:24:48;;;;;;;0.30;0.20;;;;;;;11.10;96.11;100935.22;5069537;28;20500;-48
2024/02/05 03:27:14;;;;;;;0.30;0.20;;;;;;;11.16;96.08;100935.13;5071318;28;20460;-48
2024/02/05 03:29:41;;;;;;;0.30;0.20;;;;;;;11.07;96.04;100943.28;5070994;28;20450;-48
2024/02/05 03:32:08;;;;;;;0.30;0.20;;;;;;;11.16;95.94;100938.66;5071081;28;20965;-48
2024/02/05 03:34:35;;;;;;;0.30;0.20;;;;;;;11.09;96.27;100936.13;5071083;28;20481;-48
2024/02/05 03:37:02;;;;;;;0.30;0.20;;;;;;;11.13;96.04;100937.84;5069032;28;20541;-48
2024/02/05 03:39:28;;;;;;;0.30;0.20;;;;;;;11.10;96.42;100937.88;5070532;28;20766;-48
2024/02/05 03:41:55;;;;;;;0.30;0.20;;;;;;;11.06;95.97;100930.88;5071064;28;20549;-48
2024/02/05 03:44:21;;;;;;;0.30;0.20;;;;;;;11.07;96.27;100929.97;5059659;28;20526;-48
2024/02/05 03:46:48;;;;;;;0.30;0.20;;;;;;;11.07;96.31;100935.28;5071636;28;20533;-48
2024/02/05 03:49:14;;;;;;;0.30;0.20;;;;;;;11.07;96.31;100938.84;5075171;28;20869;-49
2024/02/05 03:51:41;;;;;;;0.30;0.20;;;;;;;11.05;96.24;100935.34;5074750;28;20473;-48
2024/02/05 03:54:07;;;;;;;0.30;0.20;;;;;;;11.15;96.03;100941.34;5073077;28;20503;-48
2024/02/05 03:56:34;;;;;;;0.30;0.20;;;;;;;11.07;95.88;100938.84;5067555;28;20500;-49
2024/02/05 03:59:00;;;;;;;0.30;0.20;;;;;;;11.00;96.25;100939.88;5074888;28;20515;-48
2024/02/05 04:01:27;;;;;;;0.30;0.20;;;;;;;11.11;96.12;100934.34;5074712;28;20466;-48
2024/02/05 04:03:53;;;;;;;0.30;0.20;;;;;;;11.11;95.69;100929.03;5074909;28;20446;-49
2024/02/05 04:06:20;;;;;;;0.30;0.20;;;;;;;11.22;95.91;100933.19;5074719;28;20424;-48
2024/02/05 04:08:47;;;;;;;0.30;0.20;;;;;;;11.33;95.24;100932.09;5074497;28;20450;-49
2024/02/05 04:11:13;;;;;;;0.30;0.20;;;;;;;11.11;95.36;100934.34;5074474;28;20456;-48
2024/02/05 04:13:40;;;;;;;0.30;0.20;;;;;;;11.17;96.07;100924.44;5074269;28;20508;-48
2024/02/05 04:16:12;;;;;;;0.30;0.20;;;;;;;11.29;95.34;100933.97;5074498;28;20534;-48
2024/02/05 04:18:39;;;;;;;0.30;0.20;;;;;;;11.35;95.39;100940.94;5048305;28;20446;-48
2024/02/05 04:21:06;;;;;;;0.30;0.20;;;;;;;11.35;95.23;100943.59;5074430;28;20993;-48
2024/02/05 04:23:33;;;;;;;0.30;0.20;;;;;;;11.25;95.09;100942.94;5074601;28;20444;-48
2024/02/05 04:26:01;;;;;;;0.30;0.20;;;;;;;11.29;94.95;100939.28;5071340;28;20452;-48
2024/02/05 04:28:31;;;;;;;0.30;0.20;;;;;;;11.16;95.51;100935.13;5074348;28;20449;-48
2024/02/05 04:30:58;;;;;;;0.30;0.20;;;;;;;11.17;96.07;100939.53;5074270;28;20425;-48
2024/02/05 04:33:24;;;;;;;0.30;0.20;;;;;;;11.21;95.96;100938.56;5073943;28;20519;-49
2024/02/05 04:35:50;;;;;;;0.30;0.20;;;;;;;11.24;95.71;100938.50;5073805;28;20856;-49
2024/02/05 04:38:17;;;;;;;0.30;0.20;;;;;;;11.43;94.92;100931.88;5070783;28;20882;-48
2024/02/05 04:40:43;;;;;;;0.30;0.20;;;;;;;11.37;94.50;100945.28;5074104;28;20464;-48
2024/02/05 04:43:10;;;;;;;0.30;0.20;;;;;;;11.32;94.96;100941.88;5066413;28;20988;-49
2024/02/05 04:45:37;;;;;;;0.30;0.20;;;;;;;11.21;94.86;100946.53;5070155;28;20450;-48
2024/02/05 04:48:03;;;;;;;0.30;0.20;;;;;;;11.17;95.08;100935.09;5073797;28;20444;-48
2024/02/05 04:50:30;;;;;;;0.30;0.20;;;;;;;11.32;94.83;100939.22;5074175;28;20446;-49
2024/02/05 04:52:56;;;;;;;0.30;0.20;;;;;;;11.27;94.99;100936.66;5073638;28;20448;-48
2024/02/05 04:55:23;;;;;;;0.30;0.20;;;;;;;11.29;94.13;100933.97;5064511;28;20475;-48
2024/02/05 04:57:50;;;;;;;0.30;0.20;;;;;;;11.26;94.39;100934.91;5073355;28;20460;-48
2024/02/05 05:00:21;;;;;;;0.30;0.20;;;;;;;11.26;94.75;100932.25;5073706;28;20427;-48
2024/02/05 05:02:47;;;;;;;0.30;0.20;;;;;;;11.24;94.85;100939.38;5073561;28;20462;-48
2024/02/05 05:05:14;;;;;;;0.30;0.20;;;;;;;11.39;93.93;100934.66;5073365;28;20541;-49
2024/02/05 05:07:40;;;;;;;0.30;0.20;;;;;;;11.33;93.99;100935.63;5073559;28;20838;-48
2024/02/05 05:10:07;;;;;;;0.30;0.20;;;;;;;11.29;94.40;100933.97;5073630;28;20497;-49
2024/02/05 05:12:33;;;;;;;0.30;0.20;;;;;;;11.26;94.48;100939.34;5073413;28;21057;-48
2024/02/05 05:15:01;;;;;;;0.30;0.20;;;;;;;11.43;94.06;100934.53;5073189;28;20490;-48
2024/02/05 05:17:27;;;;;;;0.30;0.20;;;;;;;11.47;93.82;100930.88;5073119;28;20813;-48
2024/02/05 05:19:54;;;;;;;0.30;0.20;;;;;;;11.34;93.95;100931.19;5073164;28;20541;-49
2024/02/05 05:22:20;;;;;;;0.30;0.20;;;;;;;11.32;94.25;100939.22;5073106;28;20470;-48
2024/02/05 05:24:47;;;;;;;0.30;0.20;;;;;;;11.28;94.29;100937.53;5070691;28;20449;-48
2024/02/05 05:27:13;;;;;;;0.30;0.20;;;;;;;11.25;94.25;100932.28;5073130;28;20511;-49
2024/02/05 05:29:40;;;;;;;0.30;0.20;;;;;;;11.26;94.13;100939.34;5072883;28;20932;-48
2024/02/05 05:32:06;;;;;;;0.30;0.20;;;;;;;11.37;94.01;100947.09;5072689;28;20527;-48
2024/02/05 05:34:33;;;;;;;0.30;0.20;;;;;;;11.32;93.37;100941.88;5072583;28;20587;-48
2024/02/05 05:36:59;;;;;;;0.30;0.20;;;;;;;11.28;93.32;100940.19;5071026;28;20521;-49
2024/02/05 05:39:26;;;;;;;0.30;0.20;;;;;;;11.35;93.65;100941.81;5071333;28;20450;-47
2024/02/05 05:41:52;;;;;;;0.30;0.20;;;;;;;11.27;93.68;100947.31;5072668;28;20472;-48
2024/02/05 05:44:19;;;;;;;0.30;0.20;;;;;;;11.20;94.15;100948.31;5061015;28;20468;-50
2024/02/05 05:46:45;;;;;;;0.30;0.20;;;;;;;11.29;93.32;100947.25;5072384;28;20861;-48
2024/02/05 05:49:11;;;;;;;0.30;0.20;;;;;;;11.34;93.31;100945.38;5072481;28;20463;-49
2024/02/05 05:51:38;;;;;;;0.30;0.20;;;;;;;11.28;93.42;100941.06;5072253;28;20808;-48
2024/02/05 05:54:04;;;;;;;0.30;0.20;;;;;;;11.27;93.41;100941.09;5070729;28;20819;-49
2024/02/05 05:56:31;;;;;;;0.30;0.20;;;;;;;11.31;93.55;100940.13;5052444;28;20496;-49
2024/02/05 05:58:57;;;;;;;0.30;0.20;;;;;;;11.21;93.28;100936.75;5071486;28;20478;-49
2024/02/05 06:01:24;;;;;;;0.30;0.20;;;;;;;11.34;93.23;100939.16;5072212;28;20486;-50
2024/02/05 06:03:51;;;;;;;0.30;0.20;;;;;;;11.28;92.89;100941.06;5071873;28;20440;-48
2024/02/05 06:06:17;;;;;;;0.30;0.20;;;;;;;11.29;92.90;100941.94;5072398;28;20431;-48
2024/02/05 06:08:44;;;;;;;0.30;0.20;;;;;;;11.34;93.32;100934.72;5071917;28;20957;-49
2024/02/05 06:11:10;;;;;;;0.30;0.30;;;;;;;11.29;93.46;100944.59;5071491;28;20841;-49
2024/02/05 06:13:36;;;;;;;0.30;0.20;;;;;;;11.18;93.07;100939.50;5071785;28;20444;-49
2024/02/05 06:16:08;;;;;;;0.30;0.20;;;;;;;11.28;93.06;100950.84;5071891;28;20551;-48
2024/02/05 06:18:34;;;;;;;0.30;0.20;;;;;;;11.26;93.13;100940.22;5072136;28;20523;-49
2024/02/05 06:21:01;;;;;;;0.30;0.20;;;;;;;11.15;93.66;100939.56;5072011;28;20519;-49
2024/02/05 06:23:27;;;;;;;0.30;0.20;;;;;;;11.20;93.13;100940.34;5071823;28;20904;-49
2024/02/05 06:25:54;;;;;;;0.30;0.20;;;;;;;11.27;93.39;100934.00;5068881;28;20954;-49
2024/02/05 06:28:20;;;;;;;0.30;0.20;;;;;;;11.30;93.24;100934.84;5071832;28;20456;-48
2024/02/05 06:30:49;;;;;;;0.30;0.20;;;;;;;11.19;93.06;100937.72;5054021;28;20977;-48
2024/02/05 06:33:16;;;;;;;0.30;0.20;;;;;;;11.23;92.74;100931.41;5071731;28;20474;-49
2024/02/05 06:35:43;;;;;;;0.30;0.20;;;;;;;11.33;92.78;100935.63;5066378;28;20493;-48
2024/02/05 06:38:10;;;;;;;0.30;0.20;;;;;;;11.28;93.07;100933.09;5068599;28;20424;-49
2024/02/05 06:40:37;;;;;;;0.30;0.20;;;;;;;11.20;93.31;100926.16;5071735;28;20554;-49
2024/02/05 06:43:06;;;;;;;0.30;0.20;;;;;;;11.18;93.15;100931.50;5047206;28;20473;-50
2024/02/05 06:45:37;;;;;;;0.30;0.20;;;;;;;11.14;92.88;100923.63;5067388;28;20475;-49
2024/02/05 06:48:04;;;;;;;0.30;0.20;;;;;;;11.21;92.72;100925.25;5071839;28;20481;-48
2024/02/05 06:50:31;;;;;;;0.30;0.20;;;;;;;11.21;92.44;100933.22;5064983;28;20424;-49
2024/02/05 06:52:58;;;;;;;0.30;0.20;;;;;;;11.09;93.04;100941.47;5072247;28;20527;-48
2024/02/05 06:55:24;;;;;;;0.30;0.20;;;;;;;11.19;92.83;100943.03;5061920;28;20551;-49
2024/02/05 06:57:51;;;;;;;0.30;0.20;;;;;;;11.24;92.28;100943.84;5062171;28;20473;-49
2024/02/05 07:00:18;;;;;;;0.30;0.20;;;;;;;11.24;92.48;100943.84;5054103;28;20427;-49
2024/02/05 07:02:44;;;;;;;0.30;0.20;;;;;;;11.22;92.36;100942.97;5063854;28;20519;-49
2024/02/05 07:05:11;;;;;;;0.30;0.20;;;;;;;11.19;92.62;100945.69;5071541;28;20446;-48
2024/02/05 07:07:38;;;;;;;0.30;0.20;;;;;;;11.22;92.24;100946.50;5071879;28;20461;-49
2024/02/05 07:10:05;;;;;;;0.30;0.20;;;;;;;11.19;92.12;100946.56;5069515;28;20425;-49
2024/02/05 07:12:32;;;;;;;0.30;0.20;;;;;;;11.29;91.96;100939.28;5071078;28;21012;-49
2024/02/05 07:15:02;;;;;;;0.30;0.20;;;;;;;11.45;91.55;100947.81;5071531;28;20424;-49
2024/02/05 07:17:33;;;;;;;0.30;0.20;;;;;;;11.36;91.85;100948.00;5071497;28;20492;-49
2024/02/05 07:20:04;;;;;;;0.30;0.20;;;;;;;11.24;92.70;100950.03;5062208;28;20930;-49
2024/02/05 07:22:31;;;;;;;0.30;0.20;;;;;;;11.24;92.79;100943.84;5074810;28;20534;-49
2024/02/05 07:24:57;;;;;;;0.30;0.20;;;;;;;11.15;92.58;100950.22;5072482;28;20446;-48
2024/02/05 07:27:26;;;;;;;0.30;0.20;;;;;;;11.25;92.10;100950.91;5075599;28;20449;-49
2024/02/05 07:29:53;;;;;;;0.30;0.20;;;;;;;11.30;92.67;100957.00;5062144;28;20538;-49
2024/02/05 07:32:20;;;;;;;0.30;0.20;;;;;;;11.31;91.92;100956.09;5075074;28;20565;-49
2024/02/05 07:34:47;;;;;;;0.30;0.20;;;;;;;11.31;91.97;100958.75;5075387;28;20523;-49
2024/02/05 07:37:14;;;;;;;0.30;0.20;;;;;;;11.25;92.40;100950.91;5071696;28;21022;-49
2024/02/05 07:39:42;;;;;;;0.30;0.20;;;;;;;11.19;91.87;100961.66;5075180;28;20544;-49
2024/02/05 07:42:09;;;;;;;0.30;0.20;;;;;;;11.20;91.54;100960.75;5075084;28;20445;-50
2024/02/05 07:44:35;;;;;;;0.30;0.20;;;;;;;11.27;90.71;100957.06;5063290;28;20469;-50
2024/02/05 07:47:02;;;;;;;0.30;0.20;;;;;;;11.26;90.35;100958.84;5074835;28;20446;-52
2024/02/05 07:49:28;;;;;;;0.30;0.20;;;;;;;11.30;90.85;100966.78;5075030;28;20450;-49
2024/02/05 07:51:55;;;;;;;0.30;0.20;;;;;;;11.44;90.17;100967.34;5074413;28;20458;-50
2024/02/05 07:54:27;;;;;;;0.30;0.20;;;;;;;11.46;89.70;100969.06;5071192;28;20422;-50
2024/02/05 07:57:02;;;;;;;0.30;0.20;;;;;;;11.62;89.83;100974.06;5069928;28;20546;-49
2024/02/05 07:59:29;;;;;;;0.30;0.20;;;;;;;11.51;89.49;100975.19;5057023;28;20420;-49
2024/02/05 08:01:56;;;;;;;0.30;0.20;;;;;;;11.52;89.66;100981.41;5071009;28;20438;-49
2024/02/05 08:04:22;;;;;;;0.30;0.20;;;;;;;11.50;89.49;100977.84;5046766;28;20453;-49
2024/02/05 08:06:50;;;;;;;0.30;0.20;;;;;;;11.56;89.57;100977.75;5074405;28;20471;-50
2024/02/05 08:09:16;;;;;;;0.30;0.20;;;;;;;11.54;89.68;100976.91;5072665;28;20451;-50
2024/02/05 08:11:44;;;;;;;0.30;0.20;;;;;;;11.55;88.86;100978.66;5071501;28;20499;-49
2024/02/05 08:14:11;;;;;;;0.30;0.20;;;;;;;11.52;89.14;100981.41;5074622;28;20519;-50
2024/02/05 08:16:40;;;;;;;0.30;0.20;;;;;;;11.50;88.58;100992.03;5074400;28;20527;-49
2024/02/05 08:19:08;;;;;;;0.30;0.20;;;;;;;11.62;88.28;100982.06;5074321;28;20424;-50
2024/02/05 08:21:38;;;;;;;0.30;0.20;;;;;;;11.62;88.34;100990.03;5074445;28;20446;-50
2024/02/05 08:24:05;;;;;;;0.30;0.20;;;;;;;11.57;87.66;100984.81;5072811;28;20910;-49
2024/02/05 08:26:34;;;;;;;0.30;0.20;;;;;;;11.47;87.66;100985.91;5073052;28;20514;-49
2024/02/05 08:29:00;;;;;;;0.30;0.20;;;;;;;11.59;88.13;100991.00;5066209;28;20520;-49
2024/02/05 08:31:26;;;;;;;0.30;0.20;;;;;;;11.53;87.51;101002.66;5073087;28;20442;-50
2024/02/05 08:33:53;;;;;;;0.30;0.20;;;;;;;11.42;88.23;100991.34;5071898;28;20453;-50
2024/02/05 08:36:19;;;;;;;0.30;0.20;;;;;;;11.49;88.19;100997.41;5059589;28;20485;-49
2024/02/05 08:38:46;;;;;;;0.30;0.20;;;;;;;11.41;87.86;101002.91;5067589;28;20484;-49
2024/02/05 08:41:12;;;;;;;0.30;0.20;;;;;;;11.42;87.58;101002.00;5072675;28;20880;-48
2024/02/05 08:43:39;;;;;;;0.30;0.20;;;;;;;11.50;87.75;100992.03;5073719;28;20564;-50
2024/02/05 08:46:07;;;;;;;0.30;0.20;;;;;;;11.51;87.11;100995.59;5073953;28;20446;-48
2024/02/05 08:48:36;;;;;;;0.30;0.20;;;;;;;11.52;87.56;100995.59;5073659;28;20913;-49
2024/02/05 08:51:03;;;;;;;0.30;0.20;;;;;;;11.52;86.83;100984.06;5074009;28;20926;-47
2024/02/05 08:53:29;;;;;;;0.30;0.20;;;;;;;11.45;87.74;100985.09;5073870;22;20509;-48
2024/02/05 08:55:56;;;;;;;0.30;0.20;;;;;;;11.54;87.18;100988.44;5064475;28;20493;-48
2024/02/05 08:58:23;;;;;;;0.30;0.20;;;;;;;11.54;87.56;100996.41;5073691;28;20452;-48
2024/02/05 09:00:50;;;;;;;0.30;0.20;;;;;;;11.48;87.15;101000.97;5073912;28;20507;-48
2024/02/05 09:03:19;;;;;;;0.30;0.20;;;;;;;11.54;86.59;100999.09;5056661;28;20997;-48
2024/02/05 09:05:47;;;;;;;0.30;0.20;;;;;;;11.74;86.13;100997.75;5055799;28;20453;-48
2024/02/05 09:08:14;;;;;;;24.30;12.40;;;;;;;11.84;86.22;100996.69;5073861;28;20453;-48
2024/02/05 09:10:41;;;;;;;0.30;0.20;;;;;;;11.81;86.18;100999.44;5073803;28;20807;-49
2024/02/05 09:13:07;;;;;;;0.30;0.20;;;;;;;12.00;85.38;101002.53;5073503;28;20564;-48
2024/02/05 09:15:34;;;;;;;0.30;0.20;;;;;;;11.81;84.61;100987.00;5073585;28;20515;-48
2024/02/05 09:18:01;;;;;;;0.30;0.20;;;;;;;11.75;85.72;100994.19;5060301;28;20574;-48
2024/02/05 09:20:28;;;;;;;0.30;0.20;;;;;;;11.88;85.76;100982.38;5058788;28;20501;-48
2024/02/05 09:22:54;;;;;;;0.30;0.20;;;;;;;11.76;85.56;100996.81;5039871;28;20556;-49
2024/02/05 09:25:21;;;;;;;0.30;0.20;;;;;;;11.86;85.46;100979.75;5062899;28;20885;-49
2024/02/05 09:27:51;;;;;;;0.30;0.20;;;;;;;11.87;85.26;100977.97;5059858;28;20963;-49
2024/02/05 09:30:20;;;;;;;0.30;0.20;;;;;;;11.97;85.39;100995.50;5062839;28;20458;-49
2024/02/05 09:32:48;;;;;;;0.30;0.20;;;;;;;11.98;85.04;100993.72;5070430;28;20515;-49
2024/02/05 09:35:15;;;;;;;0.30;0.20;;;;;;;11.91;84.55;100990.28;5073250;28;20425;-48
2024/02/05 09:37:42;;;;;;;0.30;0.20;;;;;;;12.01;84.53;100993.63;5070149;28;20508;-49
2024/02/05 09:40:09;;;;;;;0.30;0.20;;;;;;;12.08;84.52;100997.94;5062054;28;20910;-48
2024/02/05 09:42:37;;;;;;;0.30;0.20;;;;;;;12.15;84.14;101000.41;5066823;28;20535;-48
2024/02/05 09:45:08;;;;;;;0.30;0.20;;;;;;;12.00;83.85;101000.75;5073206;28;20457;-48
2024/02/05 09:47:34;;;;;;;0.30;0.20;;;;;;;12.03;84.06;100995.34;5072838;28;20541;-48
2024/02/05 09:50:03;;;;;;;0.30;0.20;;;;;;;12.05;83.46;100998.84;5072864;28;20946;-48
2024/02/05 09:52:30;;;;;;;0.30;0.20;;;;;;;12.04;84.27;101002.44;5072494;28;20456;-48
2024/02/05 09:54:57;;;;;;;0.30;0.20;;;;;;;12.07;83.61;100994.38;5059249;28;20454;-49
2024/02/05 09:57:29;;;;;;;0.30;0.20;;;;;;;12.07;84.36;100989.06;5066031;28;20564;-49
2024/02/05 09:59:56;;;;;;;0.30;0.30;;;;;;;12.08;83.65;100990.81;5066272;28;20922;-49
2024/02/05 10:02:25;;;;;;;0.30;0.20;;;;;;;12.27;83.08;100995.69;5072750;28;20809;-49
2024/02/05 10:04:55;;;;;;;0.30;0.20;;;;;;;12.24;83.24;100990.44;5072339;28;20512;-49
2024/02/05 10:07:26;;;;;;;0.30;0.20;;;;;;;12.34;82.99;100991.97;5072400;28;20890;-49
2024/02/05 10:09:54;;;;;;;0.30;0.20;;;;;;;12.46;83.40;100988.97;5059020;28;20425;-49
2024/02/05 10:12:23;;;;;;;0.30;0.20;;;;;;;12.28;82.72;100981.44;5072404;28;20528;-49
2024/02/05 10:14:50;;;;;;;0.30;0.20;;;;;;;12.36;83.09;100975.03;5072452;28;20453;-49
2024/02/05 10:17:17;;;;;;;0.30;0.20;;;;;;;12.23;82.45;100984.22;5072343;28;20577;-50
2024/02/05 10:19:44;;;;;;;0.30;0.20;;;;;;;12.39;82.45;100982.06;5072040;28;20454;-50
2024/02/05 10:22:11;;;;;;;0.30;0.20;;;;;;;12.45;81.56;100989.91;5072459;28;22208;-49
2024/02/05 10:24:42;;;;;;;0.30;0.20;;;;;;;12.53;81.67;100995.06;5069159;28;20547;-49
2024/02/05 10:27:15;;;;;;;0.30;0.20;;;;;;;12.64;81.13;100969.88;5072234;28;20560;-49
2024/02/05 10:29:41;;;;;;;0.30;0.20;;;;;;;12.92;81.20;100970.00;5071916;28;20423;-49
2024/02/05 10:32:08;;;;;;;0.30;0.20;;;;;;;12.91;80.34;100970.03;5060554;28;20455;-49
2024/02/05 10:34:34;;;;;;;0.30;0.20;;;;;;;13.13;79.58;100970.31;5069926;28;20485;-50
2024/02/05 10:37:10;;;;;;;0.30;0.20;;;;;;;13.24;80.34;100971.78;5069862;28;20554;-49
2024/02/05 10:39:36;;;;;;;0.30;0.20;;;;;;;13.03;79.05;100961.72;5046050;28;20511;-49
2024/02/05 10:42:03;;;;;;;0.30;0.20;;;;;;;13.16;78.50;100957.78;5054002;28;20507;-50
2024/02/05 10:44:30;;;;;;;0.30;0.20;;;;;;;13.01;78.29;100964.38;5071948;28;20991;-49
2024/02/05 10:47:10;;;;;;;0.30;0.20;;;;;;;13.03;78.36;100951.03;5071626;28;20450;-58
2024/02/05 10:49:38;;;;;;;0.30;0.20;;;;;;;12.74;78.61;100959.81;5054118;28;20515;-49
2024/02/05 10:52:05;;;;;;;0.30;0.20;;;;;;;12.94;79.10;100951.28;5071662;28;20449;-50
2024/02/05 10:54:38;;;;;;;0.30;0.20;;;;;;;13.05;78.24;100950.06;5065901;28;20413;-49
2024/02/05 10:57:08;;;;;;;0.77;0.77;;;;;;;12.83;79.13;100959.56;5068256;28;20489;-49
2024/02/05 10:59:34;;;;;;;0.30;0.20;;;;;;;13.05;79.06;100955.41;5072130;28;20420;-49
2024/02/05 11:02:33;;;;;;;0.30;0.20;;;;;;;12.94;78.42;100938.81;5071680;28;20484;-49
2024/02/05 11:05:01;;;;;;;0.30;0.20;;;;;;;13.03;78.26;100932.34;5052816;28;20450;-49
2024/02/05 11:07:44;;;;;;;0.30;0.20;;;;;;;13.06;78.24;100929.59;5071687;28;20446;-49
2024/02/05 11:10:12;;;;;;;0.30;0.20;;;;;;;13.03;78.03;100929.69;5071325;28;20450;-49
2024/02/05 11:12:42;;;;;;;0.30;0.20;;;;;;;12.96;78.61;100930.75;5071744;28;20459;-49
2024/02/05 11:15:13;;;;;;;0.30;0.20;;;;;;;12.96;79.25;100920.97;5071315;28;20445;-49
2024/02/05 11:17:40;;;;;;;0.30;0.20;;;;;;;13.25;78.78;100924.63;5071306;28;20468;-50
2024/02/05 11:20:10;;;;;;;0.30;0.20;;;;;;;13.18;78.54;100915.00;5071150;28;20425;-49
2024/02/05 11:22:40;;;;;;;0.30;0.20;;;;;;;13.36;78.05;100922.50;5071125;28;20455;-49
2024/02/05 11:25:07;;;;;;;0.30;0.20;;;;;;;13.36;76.80;100919.84;5067504;28;20496;-49